Weather at Camp Ibis Army Airfield [CLOSED]

Public forecast

Using degrees Fahrenheit for public forecast. Weather courtesy of forecast.io.

Closest aviation weather report (METAR) to Camp Ibis Army Airfield

Closest report is Needles Airport, 16.5 nm (30.6 km) SE. Retrieved 2021/06/23 01:56 UTC (16 minutes ago):

KEED 230156Z AUTO 27011KT 10SM CLR 40/04 A2974 RMK AO2 SLP033 T04000039

Closest aviation forecast (TAF) to Camp Ibis Army Airfield

Closest forecast is Needles Airport, 16.5 nm (30.6 km) SE. Retrieved 2021-06-23 00:22 UTC (2 hours ago):

TAF KEED 222320Z 2300/2324 23011G20KT P6SM SCT150 BKN250 FM230300 24008KT P6SM BKN150 BKN200 FM231100 18011G20KT P6SM VCSH BKN100 BKN200 FM231900 17011G20KT P6SM VCTS SCT080CB BKN100